KSCH

Schenectady County Airport

Schenectady, New York, USA
METAR KSCH 140255Z 00000KT 10SM OVC016 M03/M05 A3050 RMK LAST
Observed Flight Rules
Dec-14 @ 02:55 UTC (10 hours ago) Marginal Visual Flight Rules
Visibility Clouds
10 miles
  • Overcast at 1,600' AGL
Temperatures Readings
Current -3°C / 27°F
Dewpoint -5°C / 23°F
Humidity 86%
Altimeter 30.5" Hg
Pressure 1033 hPa
Elevation 115
METAR KSCH 140255Z 00000KT 10SM OVC016 M03/M05 A3050 RMK LAST
Observed Flight Rules
Dec-14 @ 02:55 UTC
(10 hours ago)
MVFR
Clouds
  • Overcast at 1,600' AGL
Temperature Dewpoint
-3°C / 27°F -5°C / 23°F
Humidity Altimeter Pressure
86% 30.5" Hg 1033 hPa